sensor_id;sensor_type;location;lat;lon;timestamp;pressure;altitude;pressure_sealevel;temperature;humidity
77027;BME280;65956;52.986;17.490;2023-11-22T00:02:22;101192.15;;;-4.09;87.23
77027;BME280;65956;52.986;17.490;2023-11-22T00:04:49;101188.73;;;-4.12;87.47
77027;BME280;65956;52.986;17.490;2023-11-22T00:07:16;101189.77;;;-4.13;87.71
77027;BME280;65956;52.986;17.490;2023-11-22T00:09:42;101197.49;;;-4.14;87.78
77027;BME280;65956;52.986;17.490;2023-11-22T00:12:08;101198.43;;;-4.17;87.75
77027;BME280;65956;52.986;17.490;2023-11-22T00:14:34;101203.93;;;-4.20;87.79
77027;BME280;65956;52.986;17.490;2023-11-22T00:17:01;101208.47;;;-4.23;87.91
77027;BME280;65956;52.986;17.490;2023-11-22T00:19:28;101215.61;;;-4.26;87.89
77027;BME280;65956;52.986;17.490;2023-11-22T00:21:54;101222.54;;;-4.30;88.34
77027;BME280;65956;52.986;17.490;2023-11-22T00:24:20;101220.84;;;-4.31;88.40
77027;BME280;65956;52.986;17.490;2023-11-22T00:26:47;101222.61;;;-4.32;88.58
77027;BME280;65956;52.986;17.490;2023-11-22T00:29:13;101227.69;;;-4.34;88.54
77027;BME280;65956;52.986;17.490;2023-11-22T00:31:39;101232.37;;;-4.35;88.67
77027;BME280;65956;52.986;17.490;2023-11-22T00:34:06;101224.90;;;-4.36;88.88
77027;BME280;65956;52.986;17.490;2023-11-22T00:36:32;101223.98;;;-4.36;88.94
77027;BME280;65956;52.986;17.490;2023-11-22T00:39:00;101224.70;;;-4.36;89.05
77027;BME280;65956;52.986;17.490;2023-11-22T00:41:31;101226.11;;;-4.38;89.27
77027;BME280;65956;52.986;17.490;2023-11-22T00:43:57;101228.44;;;-4.40;89.21
77027;BME280;65956;52.986;17.490;2023-11-22T00:46:23;101233.59;;;-4.41;89.11
77027;BME280;65956;52.986;17.490;2023-11-22T00:48:50;101234.86;;;-4.42;89.40
77027;BME280;65956;52.986;17.490;2023-11-22T00:51:16;101236.00;;;-4.44;89.60
77027;BME280;65956;52.986;17.490;2023-11-22T00:53:42;101237.38;;;-4.46;89.80
77027;BME280;65956;52.986;17.490;2023-11-22T00:56:09;101239.98;;;-4.47;89.74
77027;BME280;65956;52.986;17.490;2023-11-22T00:58:35;101238.31;;;-4.49;89.67
77027;BME280;65956;52.986;17.490;2023-11-22T01:01:01;101237.64;;;-4.50;89.82
77027;BME280;65956;52.986;17.490;2023-11-22T01:03:27;101242.57;;;-4.52;89.90
77027;BME280;65956;52.986;17.490;2023-11-22T01:05:54;101242.78;;;-4.53;90.15
77027;BME280;65956;52.986;17.490;2023-11-22T01:08:21;101246.89;;;-4.54;90.14
77027;BME280;65956;52.986;17.490;2023-11-22T01:10:48;101254.22;;;-4.54;90.33
77027;BME280;65956;52.986;17.490;2023-11-22T01:13:14;101262.85;;;-4.53;90.45
77027;BME280;65956;52.986;17.490;2023-11-22T01:15:41;101270.59;;;-4.51;90.47
77027;BME280;65956;52.986;17.490;2023-11-22T01:18:07;101277.02;;;-4.51;90.33
77027;BME280;65956;52.986;17.490;2023-11-22T01:20:34;101275.98;;;-4.50;90.41
77027;BME280;65956;52.986;17.490;2023-11-22T01:23:00;101281.57;;;-4.48;90.28
77027;BME280;65956;52.986;17.490;2023-11-22T01:25:27;101280.91;;;-4.47;90.42
77027;BME280;65956;52.986;17.490;2023-11-22T01:27:54;101282.72;;;-4.47;90.31
77027;BME280;65956;52.986;17.490;2023-11-22T01:30:20;101282.44;;;-4.48;90.40
77027;BME280;65956;52.986;17.490;2023-11-22T01:32:47;101279.39;;;-4.51;90.37
77027;BME280;65956;52.986;17.490;2023-11-22T01:35:15;101274.58;;;-4.53;90.66
77027;BME280;65956;52.986;17.490;2023-11-22T01:37:41;101275.64;;;-4.56;90.63
77027;BME280;65956;52.986;17.490;2023-11-22T01:40:08;101278.45;;;-4.60;90.63
77027;BME280;65956;52.986;17.490;2023-11-22T01:42:34;101277.92;;;-4.63;90.89
77027;BME280;65956;52.986;17.490;2023-11-22T01:45:03;101277.98;;;-4.66;91.12
77027;BME280;65956;52.986;17.490;2023-11-22T01:47:31;101281.85;;;-4.66;91.08
77027;BME280;65956;52.986;17.490;2023-11-22T01:49:57;101283.09;;;-4.66;91.21
77027;BME280;65956;52.986;17.490;2023-11-22T01:52:24;101288.70;;;-4.66;91.45
77027;BME280;65956;52.986;17.490;2023-11-22T01:54:52;101296.23;;;-4.64;91.33
77027;BME280;65956;52.986;17.490;2023-11-22T01:57:20;101298.73;;;-4.64;91.40
77027;BME280;65956;52.986;17.490;2023-11-22T01:59:46;101300.64;;;-4.64;91.45
77027;BME280;65956;52.986;17.490;2023-11-22T02:02:13;101298.82;;;-4.65;91.20
77027;BME280;65956;52.986;17.490;2023-11-22T02:04:39;101299.64;;;-4.65;91.32
77027;BME280;65956;52.986;17.490;2023-11-22T02:07:06;101300.92;;;-4.63;91.19
77027;BME280;65956;52.986;17.490;2023-11-22T02:09:32;101307.29;;;-4.63;91.21
77027;BME280;65956;52.986;17.490;2023-11-22T02:11:58;101300.88;;;-4.63;91.15
77027;BME280;65956;52.986;17.490;2023-11-22T02:14:25;101305.20;;;-4.62;91.14
77027;BME280;65956;52.986;17.490;2023-11-22T02:16:51;101306.57;;;-4.60;91.03
77027;BME280;65956;52.986;17.490;2023-11-22T02:19:17;101307.77;;;-4.61;90.91
77027;BME280;65956;52.986;17.490;2023-11-22T02:21:44;101304.37;;;-4.61;90.85
77027;BME280;65956;52.986;17.490;2023-11-22T02:24:11;101310.84;;;-4.61;90.89
77027;BME280;65956;52.986;17.490;2023-11-22T02:26:37;101313.36;;;-4.61;90.69
77027;BME280;65956;52.986;17.490;2023-11-22T02:29:05;101313.77;;;-4.62;90.74
77027;BME280;65956;52.986;17.490;2023-11-22T02:31:31;101318.66;;;-4.63;90.65
77027;BME280;65956;52.986;17.490;2023-11-22T02:33:57;101314.16;;;-4.65;90.88
77027;BME280;65956;52.986;17.490;2023-11-22T02:36:24;101314.96;;;-4.66;90.71
77027;BME280;65956;52.986;17.490;2023-11-22T02:38:50;101320.08;;;-4.66;90.75
77027;BME280;65956;52.986;17.490;2023-11-22T02:41:17;101326.98;;;-4.65;90.86
77027;BME280;65956;52.986;17.490;2023-11-22T02:43:44;101329.10;;;-4.66;90.93
77027;BME280;65956;52.986;17.490;2023-11-22T02:46:12;101339.23;;;-4.68;90.64
77027;BME280;65956;52.986;17.490;2023-11-22T02:48:39;101353.00;;;-4.70;90.72
77027;BME280;65956;52.986;17.490;2023-11-22T02:51:05;101356.38;;;-4.70;90.73
77027;BME280;65956;52.986;17.490;2023-11-22T02:53:32;101354.73;;;-4.71;90.78
77027;BME280;65956;52.986;17.490;2023-11-22T02:56:01;101350.75;;;-4.72;90.89
77027;BME280;65956;52.986;17.490;2023-11-22T02:58:30;101358.48;;;-4.74;90.89
77027;BME280;65956;52.986;17.490;2023-11-22T03:00:57;101361.59;;;-4.77;91.21
77027;BME280;65956;52.986;17.490;2023-11-22T03:03:23;101358.84;;;-4.78;91.29
77027;BME280;65956;52.986;17.490;2023-11-22T03:05:50;101353.83;;;-4.80;91.30
77027;BME280;65956;52.986;17.490;2023-11-22T03:08:16;101354.98;;;-4.81;91.47
77027;BME280;65956;52.986;17.490;2023-11-22T03:10:43;101362.40;;;-4.83;91.44
77027;BME280;65956;52.986;17.490;2023-11-22T03:13:09;101357.39;;;-4.85;91.44
77027;BME280;65956;52.986;17.490;2023-11-22T03:15:35;101352.26;;;-4.86;91.70
77027;BME280;65956;52.986;17.490;2023-11-22T03:18:02;101347.45;;;-4.84;91.82
77027;BME280;65956;52.986;17.490;2023-11-22T03:20:29;101342.44;;;-4.84;91.71
77027;BME280;65956;52.986;17.490;2023-11-22T03:22:57;101334.12;;;-4.84;91.46
77027;BME280;65956;52.986;17.490;2023-11-22T03:25:23;101343.61;;;-4.85;91.62
77027;BME280;65956;52.986;17.490;2023-11-22T03:27:49;101354.91;;;-4.85;91.61
77027;BME280;65956;52.986;17.490;2023-11-22T03:30:15;101351.15;;;-4.87;91.64
77027;BME280;65956;52.986;17.490;2023-11-22T03:32:42;101361.53;;;-4.89;91.77
77027;BME280;65956;52.986;17.490;2023-11-22T03:35:10;101358.41;;;-4.90;91.69
77027;BME280;65956;52.986;17.490;2023-11-22T03:37:37;101357.23;;;-4.91;91.68
77027;BME280;65956;52.986;17.490;2023-11-22T03:40:04;101371.77;;;-4.94;91.83
77027;BME280;65956;52.986;17.490;2023-11-22T03:42:30;101372.52;;;-4.98;91.84
77027;BME280;65956;52.986;17.490;2023-11-22T03:44:57;101369.55;;;-5.00;92.15
77027;BME280;65956;52.986;17.490;2023-11-22T03:47:25;101372.02;;;-5.02;92.39
77027;BME280;65956;52.986;17.490;2023-11-22T03:49:51;101357.83;;;-5.02;92.35
77027;BME280;65956;52.986;17.490;2023-11-22T03:52:17;101364.08;;;-5.04;92.27
77027;BME280;65956;52.986;17.490;2023-11-22T03:54:43;101373.69;;;-5.05;92.39
77027;BME280;65956;52.986;17.490;2023-11-22T03:57:10;101378.20;;;-5.06;92.45
77027;BME280;65956;52.986;17.490;2023-11-22T03:59:36;101381.89;;;-5.08;92.33
77027;BME280;65956;52.986;17.490;2023-11-22T04:02:02;101388.62;;;-5.09;92.33
77027;BME280;65956;52.986;17.490;2023-11-22T04:04:28;101385.02;;;-5.09;92.32
77027;BME280;65956;52.986;17.490;2023-11-22T04:06:54;101381.14;;;-5.08;92.26
77027;BME280;65956;52.986;17.490;2023-11-22T04:09:21;101382.33;;;-5.09;92.33
77027;BME280;65956;52.986;17.490;2023-11-22T04:11:48;101381.73;;;-5.09;92.27
77027;BME280;65956;52.986;17.490;2023-11-22T04:14:14;101385.61;;;-5.07;92.28
77027;BME280;65956;52.986;17.490;2023-11-22T04:16:40;101398.39;;;-5.07;92.39
77027;BME280;65956;52.986;17.490;2023-11-22T04:19:07;101420.73;;;-5.08;92.46
77027;BME280;65956;52.986;17.490;2023-11-22T04:21:33;101432.86;;;-5.08;92.64
77027;BME280;65956;52.986;17.490;2023-11-22T04:23:59;101429.38;;;-5.09;92.81
77027;BME280;65956;52.986;17.490;2023-11-22T04:26:25;101432.23;;;-5.10;92.80
77027;BME280;65956;52.986;17.490;2023-11-22T04:28:52;101433.94;;;-5.11;92.85
77027;BME280;65956;52.986;17.490;2023-11-22T04:31:18;101435.14;;;-5.11;92.86
77027;BME280;65956;52.986;17.490;2023-11-22T04:33:44;101443.63;;;-5.11;92.91
77027;BME280;65956;52.986;17.490;2023-11-22T04:36:11;101442.75;;;-5.11;92.97
77027;BME280;65956;52.986;17.490;2023-11-22T04:38:38;101443.63;;;-5.11;92.98
77027;BME280;65956;52.986;17.490;2023-11-22T04:41:04;101451.90;;;-5.10;92.93
77027;BME280;65956;52.986;17.490;2023-11-22T04:43:30;101458.07;;;-5.09;92.77
77027;BME280;65956;52.986;17.490;2023-11-22T04:45:57;101459.82;;;-5.08;92.73
77027;BME280;65956;52.986;17.490;2023-11-22T04:48:24;101463.94;;;-5.06;92.71
77027;BME280;65956;52.986;17.490;2023-11-22T04:50:50;101467.17;;;-5.04;92.67
77027;BME280;65956;52.986;17.490;2023-11-22T04:53:16;101466.55;;;-5.02;92.77
77027;BME280;65956;52.986;17.490;2023-11-22T04:55:43;101471.05;;;-5.01;92.60
77027;BME280;65956;52.986;17.490;2023-11-22T04:58:09;101465.96;;;-4.97;92.63
77027;BME280;65956;52.986;17.490;2023-11-22T05:00:35;101467.88;;;-4.94;92.46
77027;BME280;65956;52.986;17.490;2023-11-22T05:03:02;101470.58;;;-4.89;92.30
77027;BME280;65956;52.986;17.490;2023-11-22T05:05:28;101480.24;;;-4.81;92.36
77027;BME280;65956;52.986;17.490;2023-11-22T05:07:55;101483.15;;;-4.75;92.25
77027;BME280;65956;52.986;17.490;2023-11-22T05:10:21;101482.73;;;-4.69;91.83
77027;BME280;65956;52.986;17.490;2023-11-22T05:12:47;101485.92;;;-4.64;91.61
77027;BME280;65956;52.986;17.490;2023-11-22T05:15:13;101491.44;;;-4.60;91.48
77027;BME280;65956;52.986;17.490;2023-11-22T05:17:40;101491.52;;;-4.56;91.48
77027;BME280;65956;52.986;17.490;2023-11-22T05:20:07;101494.23;;;-4.52;91.20
77027;BME280;65956;52.986;17.490;2023-11-22T05:22:36;101497.67;;;-4.48;91.34
77027;BME280;65956;52.986;17.490;2023-11-22T05:25:03;101503.38;;;-4.46;91.18
77027;BME280;65956;52.986;17.490;2023-11-22T05:27:29;101509.80;;;-4.43;91.18
77027;BME280;65956;52.986;17.490;2023-11-22T05:29:58;101508.75;;;-4.41;91.01
77027;BME280;65956;52.986;17.490;2023-11-22T05:32:24;101502.16;;;-4.38;90.92
77027;BME280;65956;52.986;17.490;2023-11-22T05:34:51;101510.37;;;-4.36;90.99
77027;BME280;65956;52.986;17.490;2023-11-22T05:37:18;101513.38;;;-4.35;91.03
77027;BME280;65956;52.986;17.490;2023-11-22T05:39:44;101515.55;;;-4.32;91.12
77027;BME280;65956;52.986;17.490;2023-11-22T05:42:11;101517.93;;;-4.29;91.16
77027;BME280;65956;52.986;17.490;2023-11-22T05:44:37;101504.11;;;-4.27;91.00
77027;BME280;65956;52.986;17.490;2023-11-22T05:47:04;101503.83;;;-4.24;91.11
77027;BME280;65956;52.986;17.490;2023-11-22T05:49:30;101501.48;;;-4.21;91.23
77027;BME280;65956;52.986;17.490;2023-11-22T05:51:56;101504.31;;;-4.21;90.97
77027;BME280;65956;52.986;17.490;2023-11-22T05:54:23;101507.24;;;-4.22;90.95
77027;BME280;65956;52.986;17.490;2023-11-22T05:56:49;101511.87;;;-4.22;90.94
77027;BME280;65956;52.986;17.490;2023-11-22T05:59:15;101518.17;;;-4.22;90.80
77027;BME280;65956;52.986;17.490;2023-11-22T06:01:42;101514.50;;;-4.20;90.78
77027;BME280;65956;52.986;17.490;2023-11-22T06:04:08;101511.98;;;-4.18;90.79
77027;BME280;65956;52.986;17.490;2023-11-22T06:06:36;101520.92;;;-4.17;90.82
77027;BME280;65956;52.986;17.490;2023-11-22T06:09:03;101529.17;;;-4.16;90.87
77027;BME280;65956;52.986;17.490;2023-11-22T06:11:31;101538.88;;;-4.15;90.64
77027;BME280;65956;52.986;17.490;2023-11-22T06:13:57;101546.21;;;-4.13;90.78
77027;BME280;65956;52.986;17.490;2023-11-22T06:16:23;101547.16;;;-4.08;90.89
77027;BME280;65956;52.986;17.490;2023-11-22T06:18:49;101543.27;;;-4.03;90.89
77027;BME280;65956;52.986;17.490;2023-11-22T06:21:17;101532.70;;;-3.98;91.14
77027;BME280;65956;52.986;17.490;2023-11-22T06:23:43;101534.56;;;-3.94;91.05
77027;BME280;65956;52.986;17.490;2023-11-22T06:26:09;101536.78;;;-3.89;91.15
77027;BME280;65956;52.986;17.490;2023-11-22T06:28:35;101537.83;;;-3.84;91.30
77027;BME280;65956;52.986;17.490;2023-11-22T06:31:02;101536.65;;;-3.80;91.16
77027;BME280;65956;52.986;17.490;2023-11-22T06:33:29;101536.67;;;-3.75;91.14
77027;BME280;65956;52.986;17.490;2023-11-22T06:35:55;101540.27;;;-3.69;91.22
77027;BME280;65956;52.986;17.490;2023-11-22T06:38:21;101547.16;;;-3.62;91.14
77027;BME280;65956;52.986;17.490;2023-11-22T06:40:47;101554.60;;;-3.58;91.05
77027;BME280;65956;52.986;17.490;2023-11-22T06:43:13;101564.63;;;-3.58;90.90
77027;BME280;65956;52.986;17.490;2023-11-22T06:45:39;101562.46;;;-3.52;90.62
77027;BME280;65956;52.986;17.490;2023-11-22T06:48:07;101558.88;;;-3.45;90.75
77027;BME280;65956;52.986;17.490;2023-11-22T06:50:34;101557.65;;;-3.36;90.61
77027;BME280;65956;52.986;17.490;2023-11-22T06:53:00;101561.49;;;-3.31;90.58
77027;BME280;65956;52.986;17.490;2023-11-22T06:55:29;101560.98;;;-3.25;90.35
77027;BME280;65956;52.986;17.490;2023-11-22T06:57:57;101558.27;;;-3.17;90.23
77027;BME280;65956;52.986;17.490;2023-11-22T07:00:23;101562.29;;;-3.11;90.20
77027;BME280;65956;52.986;17.490;2023-11-22T07:02:49;101579.19;;;-3.14;89.86
77027;BME280;65956;52.986;17.490;2023-11-22T07:05:15;101597.79;;;-3.16;90.20
77027;BME280;65956;52.986;17.490;2023-11-22T07:07:41;101603.34;;;-3.17;90.12
77027;BME280;65956;52.986;17.490;2023-11-22T07:10:07;101608.80;;;-3.17;90.22
77027;BME280;65956;52.986;17.490;2023-11-22T07:12:34;101615.33;;;-3.15;90.15
77027;BME280;65956;52.986;17.490;2023-11-22T07:15:00;101622.59;;;-3.14;90.04
77027;BME280;65956;52.986;17.490;2023-11-22T07:17:27;101634.63;;;-3.14;89.89
77027;BME280;65956;52.986;17.490;2023-11-22T07:19:55;101648.58;;;-3.15;90.03
77027;BME280;65956;52.986;17.490;2023-11-22T07:22:21;101658.67;;;-3.17;89.42
77027;BME280;65956;52.986;17.490;2023-11-22T07:24:50;101655.46;;;-3.20;89.23
77027;BME280;65956;52.986;17.490;2023-11-22T07:27:20;101646.48;;;-3.20;89.22
77027;BME280;65956;52.986;17.490;2023-11-22T07:29:47;101649.85;;;-3.17;89.71
77027;BME280;65956;52.986;17.490;2023-11-22T07:32:13;101648.27;;;-3.13;89.67
77027;BME280;65956;52.986;17.490;2023-11-22T07:34:40;101642.50;;;-3.09;89.64
77027;BME280;65956;52.986;17.490;2023-11-22T07:37:08;101643.39;;;-3.05;89.69
77027;BME280;65956;52.986;17.490;2023-11-22T07:39:35;101652.84;;;-3.00;89.41
77027;BME280;65956;52.986;17.490;2023-11-22T07:42:02;101658.43;;;-2.94;89.42
77027;BME280;65956;52.986;17.490;2023-11-22T07:44:29;101653.34;;;-2.89;89.29
77027;BME280;65956;52.986;17.490;2023-11-22T07:46:59;101649.92;;;-2.84;89.06
77027;BME280;65956;52.986;17.490;2023-11-22T07:49:26;101643.14;;;-2.77;89.09
77027;BME280;65956;52.986;17.490;2023-11-22T07:51:52;101634.21;;;-2.72;89.10
77027;BME280;65956;52.986;17.490;2023-11-22T07:54:19;101620.93;;;-2.70;89.21
77027;BME280;65956;52.986;17.490;2023-11-22T07:56:51;101620.15;;;-2.66;89.07
77027;BME280;65956;52.986;17.490;2023-11-22T07:59:20;101614.16;;;-2.58;89.16
77027;BME280;65956;52.986;17.490;2023-11-22T08:01:47;101611.17;;;-2.48;89.13
77027;BME280;65956;52.986;17.490;2023-11-22T08:04:16;101610.02;;;-2.35;89.00
77027;BME280;65956;52.986;17.490;2023-11-22T08:06:43;101610.37;;;-2.24;88.75
77027;BME280;65956;52.986;17.490;2023-11-22T08:09:09;101608.56;;;-2.14;88.42
77027;BME280;65956;52.986;17.490;2023-11-22T08:11:36;101600.83;;;-2.12;88.18
77027;BME280;65956;52.986;17.490;2023-11-22T08:14:03;101596.08;;;-2.06;88.14
77027;BME280;65956;52.986;17.490;2023-11-22T08:16:29;101592.89;;;-2.05;87.94
77027;BME280;65956;52.986;17.490;2023-11-22T08:18:56;101588.77;;;-2.06;88.00
77027;BME280;65956;52.986;17.490;2023-11-22T08:21:23;101593.38;;;-2.05;88.02
77027;BME280;65956;52.986;17.490;2023-11-22T08:23:49;101597.52;;;-2.06;87.99
77027;BME280;65956;52.986;17.490;2023-11-22T08:26:16;101598.61;;;-2.05;87.97
77027;BME280;65956;52.986;17.490;2023-11-22T08:28:42;101597.95;;;-2.01;87.75
77027;BME280;65956;52.986;17.490;2023-11-22T08:31:08;101598.64;;;-1.98;87.58
77027;BME280;65956;52.986;17.490;2023-11-22T08:33:39;101601.29;;;-1.94;87.20
77027;BME280;65956;52.986;17.490;2023-11-22T08:36:06;101610.16;;;-1.93;86.78
77027;BME280;65956;52.986;17.490;2023-11-22T08:38:34;101617.98;;;-1.93;86.80
77027;BME280;65956;52.986;17.490;2023-11-22T08:41:04;101617.98;;;-1.93;86.57
77027;BME280;65956;52.986;17.490;2023-11-22T08:43:34;101632.06;;;-1.87;86.67
77027;BME280;65956;52.986;17.490;2023-11-22T08:46:01;101639.80;;;-1.79;86.95
77027;BME280;65956;52.986;17.490;2023-11-22T08:48:31;101636.63;;;-1.73;87.03
77027;BME280;65956;52.986;17.490;2023-11-22T08:50:57;101641.55;;;-1.68;86.34
77027;BME280;65956;52.986;17.490;2023-11-22T08:53:24;101642.95;;;-1.65;86.15
77027;BME280;65956;52.986;17.490;2023-11-22T08:55:50;101640.52;;;-1.61;85.52
77027;BME280;65956;52.986;17.490;2023-11-22T08:58:17;101639.99;;;-1.53;85.62
77027;BME280;65956;52.986;17.490;2023-11-22T09:00:43;101634.23;;;-1.48;84.89
77027;BME280;65956;52.986;17.490;2023-11-22T09:03:11;101628.59;;;-1.50;84.03
77027;BME280;65956;52.986;17.490;2023-11-22T09:05:42;101625.63;;;-1.47;84.34
77027;BME280;65956;52.986;17.490;2023-11-22T09:08:09;101625.11;;;-1.42;84.72
77027;BME280;65956;52.986;17.490;2023-11-22T09:10:39;101626.50;;;-1.34;84.90
77027;BME280;65956;52.986;17.490;2023-11-22T09:13:08;101630.45;;;-1.25;84.63
77027;BME280;65956;52.986;17.490;2023-11-22T09:15:35;101620.05;;;-1.18;84.73
77027;BME280;65956;52.986;17.490;2023-11-22T09:18:02;101621.13;;;-1.14;84.61
77027;BME280;65956;52.986;17.490;2023-11-22T09:20:28;101622.30;;;-1.09;84.92
77027;BME280;65956;52.986;17.490;2023-11-22T09:22:54;101625.36;;;-1.02;85.05
77027;BME280;65956;52.986;17.490;2023-11-22T09:25:23;101622.83;;;-0.98;84.79
77027;BME280;65956;52.986;17.490;2023-11-22T09:27:55;101623.43;;;-0.96;84.13
77027;BME280;65956;52.986;17.490;2023-11-22T09:30:24;101627.80;;;-0.95;84.68
77027;BME280;65956;52.986;17.490;2023-11-22T09:33:09;101627.55;;;-0.94;84.30
77027;BME280;65956;52.986;17.490;2023-11-22T09:35:37;101637.19;;;-0.94;83.68
77027;BME280;65956;52.986;17.490;2023-11-22T09:38:05;101640.71;;;-0.92;83.47
77027;BME280;65956;52.986;17.490;2023-11-22T09:40:48;101637.80;;;-0.93;83.08
77027;BME280;65956;52.986;17.490;2023-11-22T09:43:16;101635.21;;;-0.94;83.28
77027;BME280;65956;52.986;17.490;2023-11-22T09:45:48;101635.83;;;-0.91;83.67
77027;BME280;65956;52.986;17.490;2023-11-22T09:48:19;101642.80;;;-0.86;83.21
77027;BME280;65956;52.986;17.490;2023-11-22T09:51:05;101642.05;;;-0.85;82.90
77027;BME280;65956;52.986;17.490;2023-11-22T09:53:41;101639.69;;;-0.86;81.95
77027;BME280;65956;52.986;17.490;2023-11-22T09:56:12;101639.64;;;-0.84;82.06
77027;BME280;65956;52.986;17.490;2023-11-22T09:58:41;101636.63;;;-0.78;81.95
77027;BME280;65956;52.986;17.490;2023-11-22T10:01:13;101638.77;;;-0.77;81.97
77027;BME280;65956;52.986;17.490;2023-11-22T10:03:40;101635.41;;;-0.72;81.99
77027;BME280;65956;52.986;17.490;2023-11-22T10:06:07;101634.70;;;-0.68;81.64
77027;BME280;65956;52.986;17.490;2023-11-22T10:08:33;101634.52;;;-0.62;81.65
77027;BME280;65956;52.986;17.490;2023-11-22T10:11:01;101629.41;;;-0.56;81.76
77027;BME280;65956;52.986;17.490;2023-11-22T10:13:27;101627.71;;;-0.56;80.30
77027;BME280;65956;52.986;17.490;2023-11-22T10:15:53;101630.53;;;-0.51;80.95
77027;BME280;65956;52.986;17.490;2023-11-22T10:18:20;101622.44;;;-0.50;78.86
77027;BME280;65956;52.986;17.490;2023-11-22T10:20:49;101615.80;;;-0.52;78.93
77027;BME280;65956;52.986;17.490;2023-11-22T10:23:17;101617.85;;;-0.44;80.32
77027;BME280;65956;52.986;17.490;2023-11-22T10:25:44;101621.44;;;-0.39;79.71
77027;BME280;65956;52.986;17.490;2023-11-22T10:28:13;101625.23;;;-0.36;79.02
77027;BME280;65956;52.986;17.490;2023-11-22T10:30:39;101625.52;;;-0.35;79.01
77027;BME280;65956;52.986;17.490;2023-11-22T10:33:10;101623.95;;;-0.28;79.36
77027;BME280;65956;52.986;17.490;2023-11-22T10:35:44;101622.72;;;-0.21;78.10
77027;BME280;65956;52.986;17.490;2023-11-22T10:38:10;101625.75;;;-0.14;78.08
77027;BME280;65956;52.986;17.490;2023-11-22T10:40:37;101639.34;;;0.05;77.96
77027;BME280;65956;52.986;17.490;2023-11-22T10:43:05;101636.83;;;0.28;76.80
77027;BME280;65956;52.986;17.490;2023-11-22T10:45:34;101637.45;;;0.44;76.79
77027;BME280;65956;52.986;17.490;2023-11-22T10:48:03;101634.11;;;0.60;75.51
77027;BME280;65956;52.986;17.490;2023-11-22T10:50:31;101627.54;;;0.68;75.65
77027;BME280;65956;52.986;17.490;2023-11-22T10:52:57;101618.37;;;0.73;76.54
77027;BME280;65956;52.986;17.490;2023-11-22T10:55:32;101618.98;;;0.74;75.83
77027;BME280;65956;52.986;17.490;2023-11-22T10:58:02;101616.89;;;0.74;75.82
77027;BME280;65956;52.986;17.490;2023-11-22T11:00:31;101610.70;;;0.81;76.03
77027;BME280;65956;52.986;17.490;2023-11-22T11:03:19;101623.64;;;0.84;76.01
77027;BME280;65956;52.986;17.490;2023-11-22T11:06:02;101628.51;;;0.95;76.27
77027;BME280;65956;52.986;17.490;2023-11-22T11:08:31;101625.30;;;1.09;74.36
77027;BME280;65956;52.986;17.490;2023-11-22T11:10:59;101621.39;;;1.16;75.15
77027;BME280;65956;52.986;17.490;2023-11-22T11:13:29;101620.79;;;1.37;74.03
77027;BME280;65956;52.986;17.490;2023-11-22T11:15:56;101622.66;;;1.69;72.67
77027;BME280;65956;52.986;17.490;2023-11-22T11:18:23;101626.09;;;2.23;71.82
77027;BME280;65956;52.986;17.490;2023-11-22T11:20:57;101622.84;;;4.50;68.54
77027;BME280;65956;52.986;17.490;2023-11-22T11:23:26;101612.41;;;6.40;62.47
77027;BME280;65956;52.986;17.490;2023-11-22T11:25:56;101608.48;;;7.71;60.20
77027;BME280;65956;52.986;17.490;2023-11-22T11:28:23;101607.80;;;9.08;59.13
77027;BME280;65956;52.986;17.490;2023-11-22T11:30:54;101598.66;;;10.37;56.94
77027;BME280;65956;52.986;17.490;2023-11-22T11:33:33;101601.45;;;11.48;54.55
77027;BME280;65956;52.986;17.490;2023-11-22T11:36:02;101601.86;;;12.39;53.06
77027;BME280;65956;52.986;17.490;2023-11-22T11:38:34;101601.95;;;12.58;50.98
77027;BME280;65956;52.986;17.490;2023-11-22T11:41:11;101600.16;;;11.96;52.63
77027;BME280;65956;52.986;17.490;2023-11-22T11:43:48;101597.73;;;10.91;52.85
77027;BME280;65956;52.986;17.490;2023-11-22T11:46:17;101595.27;;;9.91;48.43
77027;BME280;65956;52.986;17.490;2023-11-22T11:48:45;101593.60;;;9.84;50.37
77027;BME280;65956;52.986;17.490;2023-11-22T11:51:17;101592.01;;;9.88;47.63
77027;BME280;65956;52.986;17.490;2023-11-22T11:53:47;101596.44;;;9.79;46.16
77027;BME280;65956;52.986;17.490;2023-11-22T11:56:13;101593.71;;;9.50;48.86
77027;BME280;65956;52.986;17.490;2023-11-22T11:58:43;101590.15;;;9.73;49.55
77027;BME280;65956;52.986;17.490;2023-11-22T12:01:12;101587.75;;;10.47;48.98
77027;BME280;65956;52.986;17.490;2023-11-22T12:03:38;101588.20;;;11.48;48.25
77027;BME280;65956;52.986;17.490;2023-11-22T12:06:07;101585.54;;;12.20;43.76
77027;BME280;65956;52.986;17.490;2023-11-22T12:08:34;101577.96;;;12.05;39.65
77027;BME280;65956;52.986;17.490;2023-11-22T12:11:03;101569.95;;;11.58;40.81
77027;BME280;65956;52.986;17.490;2023-11-22T12:13:31;101570.41;;;10.07;44.78
77027;BME280;65956;52.986;17.490;2023-11-22T12:15:57;101570.92;;;9.49;47.02
77027;BME280;65956;52.986;17.490;2023-11-22T12:18:23;101574.86;;;10.54;44.99
77027;BME280;65956;52.986;17.490;2023-11-22T12:20:56;101563.40;;;10.97;42.23
77027;BME280;65956;52.986;17.490;2023-11-22T12:23:24;101550.98;;;10.89;40.48
77027;BME280;65956;52.986;17.490;2023-11-22T12:25:57;101541.23;;;10.60;41.07
77027;BME280;65956;52.986;17.490;2023-11-22T12:28:27;101533.39;;;11.12;42.13
77027;BME280;65956;52.986;17.490;2023-11-22T12:30:54;101526.49;;;11.68;42.79
77027;BME280;65956;52.986;17.490;2023-11-22T12:33:21;101521.38;;;12.08;41.58
77027;BME280;65956;52.986;17.490;2023-11-22T12:35:47;101523.62;;;12.30;40.48
77027;BME280;65956;52.986;17.490;2023-11-22T12:38:14;101522.38;;;12.36;41.51
77027;BME280;65956;52.986;17.490;2023-11-22T12:40:45;101524.88;;;12.08;40.73
77027;BME280;65956;52.986;17.490;2023-11-22T12:43:13;101527.68;;;10.97;39.62